sensor_id;sensor_type;location;lat;lon;timestamp;P1;durP1;ratioP1;P2;durP2;ratioP2
71941;SDS011;59997;53.300;-6.260;2023-08-24T00:01:00;7.50;;;1.48;;
71941;SDS011;59997;53.300;-6.260;2023-08-24T00:03:26;9.27;;;1.63;;
71941;SDS011;59997;53.300;-6.260;2023-08-24T00:05:52;9.37;;;1.70;;
71941;SDS011;59997;53.300;-6.260;2023-08-24T00:08:19;11.40;;;1.48;;
71941;SDS011;59997;53.300;-6.260;2023-08-24T00:10:44;6.35;;;1.20;;
71941;SDS011;59997;53.300;-6.260;2023-08-24T00:13:13;7.20;;;1.40;;
71941;SDS011;59997;53.300;-6.260;2023-08-24T00:15:39;10.93;;;1.58;;
71941;SDS011;59997;53.300;-6.260;2023-08-24T00:18:07;8.80;;;1.70;;
71941;SDS011;59997;53.300;-6.260;2023-08-24T00:20:33;7.97;;;1.63;;
71941;SDS011;59997;53.300;-6.260;2023-08-24T00:22:59;8.68;;;1.20;;
71941;SDS011;59997;53.300;-6.260;2023-08-24T00:25:26;9.43;;;1.50;;
71941;SDS011;59997;53.300;-6.260;2023-08-24T00:27:55;9.20;;;1.40;;
71941;SDS011;59997;53.300;-6.260;2023-08-24T00:30:21;12.98;;;1.85;;
71941;SDS011;59997;53.300;-6.260;2023-08-24T00:32:48;9.77;;;1.90;;
71941;SDS011;59997;53.300;-6.260;2023-08-24T00:35:15;5.68;;;1.40;;
71941;SDS011;59997;53.300;-6.260;2023-08-24T00:37:41;8.10;;;1.50;;
71941;SDS011;59997;53.300;-6.260;2023-08-24T00:40:08;10.00;;;1.77;;
71941;SDS011;59997;53.300;-6.260;2023-08-24T00:42:41;8.07;;;1.58;;
71941;SDS011;59997;53.300;-6.260;2023-08-24T00:45:09;8.68;;;1.70;;
71941;SDS011;59997;53.300;-6.260;2023-08-24T00:47:37;10.82;;;1.90;;
71941;SDS011;59997;53.300;-6.260;2023-08-24T00:50:06;9.47;;;2.20;;
71941;SDS011;59997;53.300;-6.260;2023-08-24T00:52:33;9.25;;;2.08;;
71941;SDS011;59997;53.300;-6.260;2023-08-24T00:55:00;12.25;;;2.30;;
71941;SDS011;59997;53.300;-6.260;2023-08-24T00:57:27;11.25;;;1.95;;
71941;SDS011;59997;53.300;-6.260;2023-08-24T00:59:54;8.25;;;1.83;;
71941;SDS011;59997;53.300;-6.260;2023-08-24T01:02:24;13.43;;;1.93;;
71941;SDS011;59997;53.300;-6.260;2023-08-24T01:04:51;8.65;;;1.73;;
71941;SDS011;59997;53.300;-6.260;2023-08-24T01:07:17;12.38;;;2.08;;
71941;SDS011;59997;53.300;-6.260;2023-08-24T01:09:43;10.15;;;1.70;;
71941;SDS011;59997;53.300;-6.260;2023-08-24T01:12:50;10.47;;;2.00;;
71941;SDS011;59997;53.300;-6.260;2023-08-24T01:18:21;7.30;;;1.60;;
71941;SDS011;59997;53.300;-6.260;2023-08-24T01:20:52;7.70;;;1.67;;
71941;SDS011;59997;53.300;-6.260;2023-08-24T01:23:29;8.82;;;1.60;;
71941;SDS011;59997;53.300;-6.260;2023-08-24T01:28:45;5.17;;;1.20;;
71941;SDS011;59997;53.300;-6.260;2023-08-24T01:31:15;9.85;;;1.40;;
71941;SDS011;59997;53.300;-6.260;2023-08-24T01:33:42;8.23;;;1.48;;
71941;SDS011;59997;53.300;-6.260;2023-08-24T01:36:09;6.13;;;1.33;;
71941;SDS011;59997;53.300;-6.260;2023-08-24T01:38:37;8.35;;;1.30;;
71941;SDS011;59997;53.300;-6.260;2023-08-24T01:41:24;7.67;;;1.17;;
71941;SDS011;59997;53.300;-6.260;2023-08-24T01:43:53;10.18;;;1.60;;
71941;SDS011;59997;53.300;-6.260;2023-08-24T01:46:23;8.15;;;1.30;;
71941;SDS011;59997;53.300;-6.260;2023-08-24T01:48:50;7.55;;;1.80;;
71941;SDS011;59997;53.300;-6.260;2023-08-24T01:51:18;9.80;;;1.38;;
71941;SDS011;59997;53.300;-6.260;2023-08-24T01:53:45;5.07;;;1.03;;
71941;SDS011;59997;53.300;-6.260;2023-08-24T01:56:12;5.05;;;1.13;;
71941;SDS011;59997;53.300;-6.260;2023-08-24T01:58:40;7.47;;;1.40;;
71941;SDS011;59997;53.300;-6.260;2023-08-24T02:01:06;10.40;;;1.75;;
71941;SDS011;59997;53.300;-6.260;2023-08-24T02:03:34;8.50;;;1.23;;
71941;SDS011;59997;53.300;-6.260;2023-08-24T02:05:59;8.07;;;1.10;;
71941;SDS011;59997;53.300;-6.260;2023-08-24T02:08:25;7.68;;;1.45;;
71941;SDS011;59997;53.300;-6.260;2023-08-24T02:10:51;9.37;;;1.40;;
71941;SDS011;59997;53.300;-6.260;2023-08-24T02:13:16;7.60;;;1.47;;
71941;SDS011;59997;53.300;-6.260;2023-08-24T02:15:42;5.07;;;1.20;;
71941;SDS011;59997;53.300;-6.260;2023-08-24T02:18:08;7.87;;;1.20;;
71941;SDS011;59997;53.300;-6.260;2023-08-24T02:20:35;6.97;;;1.45;;
71941;SDS011;59997;53.300;-6.260;2023-08-24T02:23:07;7.80;;;1.25;;
71941;SDS011;59997;53.300;-6.260;2023-08-24T02:25:32;7.37;;;1.30;;
71941;SDS011;59997;53.300;-6.260;2023-08-24T02:27:58;7.57;;;1.63;;
71941;SDS011;59997;53.300;-6.260;2023-08-24T02:30:25;9.67;;;1.40;;
71941;SDS011;59997;53.300;-6.260;2023-08-24T02:32:51;7.50;;;1.33;;
71941;SDS011;59997;53.300;-6.260;2023-08-24T02:35:18;9.13;;;1.40;;
71941;SDS011;59997;53.300;-6.260;2023-08-24T02:37:44;8.05;;;1.52;;
71941;SDS011;59997;53.300;-6.260;2023-08-24T02:40:10;7.17;;;1.60;;
71941;SDS011;59997;53.300;-6.260;2023-08-24T02:42:37;6.57;;;1.45;;
71941;SDS011;59997;53.300;-6.260;2023-08-24T02:45:03;9.55;;;1.67;;
71941;SDS011;59997;53.300;-6.260;2023-08-24T02:47:29;8.33;;;1.40;;
71941;SDS011;59997;53.300;-6.260;2023-08-24T02:49:55;8.75;;;1.55;;
71941;SDS011;59997;53.300;-6.260;2023-08-24T02:52:21;12.07;;;1.40;;
71941;SDS011;59997;53.300;-6.260;2023-08-24T02:54:46;5.13;;;1.50;;
71941;SDS011;59997;53.300;-6.260;2023-08-24T02:57:12;6.05;;;1.20;;
71941;SDS011;59997;53.300;-6.260;2023-08-24T02:59:38;7.27;;;1.40;;
71941;SDS011;59997;53.300;-6.260;2023-08-24T03:02:04;6.57;;;1.10;;
71941;SDS011;59997;53.300;-6.260;2023-08-24T03:04:30;6.23;;;1.50;;
71941;SDS011;59997;53.300;-6.260;2023-08-24T03:06:56;8.93;;;1.45;;
71941;SDS011;59997;53.300;-6.260;2023-08-24T03:09:22;6.87;;;1.33;;
71941;SDS011;59997;53.300;-6.260;2023-08-24T03:11:48;7.30;;;1.23;;
71941;SDS011;59997;53.300;-6.260;2023-08-24T03:14:13;8.20;;;1.30;;
71941;SDS011;59997;53.300;-6.260;2023-08-24T03:16:39;6.20;;;1.30;;
71941;SDS011;59997;53.300;-6.260;2023-08-24T03:19:06;7.28;;;1.40;;
71941;SDS011;59997;53.300;-6.260;2023-08-24T03:21:32;8.60;;;1.30;;
71941;SDS011;59997;53.300;-6.260;2023-08-24T03:24:01;5.93;;;1.05;;
71941;SDS011;59997;53.300;-6.260;2023-08-24T03:26:30;7.65;;;1.67;;
71941;SDS011;59997;53.300;-6.260;2023-08-24T03:28:55;11.93;;;1.52;;
71941;SDS011;59997;53.300;-6.260;2023-08-24T03:31:21;6.20;;;1.60;;
71941;SDS011;59997;53.300;-6.260;2023-08-24T03:33:47;6.63;;;1.33;;
71941;SDS011;59997;53.300;-6.260;2023-08-24T03:36:14;9.50;;;1.40;;
71941;SDS011;59997;53.300;-6.260;2023-08-24T03:38:40;7.80;;;1.08;;
71941;SDS011;59997;53.300;-6.260;2023-08-24T03:41:06;8.93;;;1.27;;
71941;SDS011;59997;53.300;-6.260;2023-08-24T03:43:32;6.65;;;1.15;;
71941;SDS011;59997;53.300;-6.260;2023-08-24T03:46:01;7.78;;;1.35;;
71941;SDS011;59997;53.300;-6.260;2023-08-24T03:48:27;6.10;;;1.08;;
71941;SDS011;59997;53.300;-6.260;2023-08-24T03:50:53;6.38;;;1.40;;
71941;SDS011;59997;53.300;-6.260;2023-08-24T03:53:21;8.73;;;1.33;;
71941;SDS011;59997;53.300;-6.260;2023-08-24T03:55:48;8.23;;;1.50;;
71941;SDS011;59997;53.300;-6.260;2023-08-24T03:58:14;7.80;;;1.42;;
71941;SDS011;59997;53.300;-6.260;2023-08-24T04:00:41;6.97;;;1.20;;
71941;SDS011;59997;53.300;-6.260;2023-08-24T04:03:10;6.60;;;1.57;;
71941;SDS011;59997;53.300;-6.260;2023-08-24T04:05:36;8.45;;;1.50;;
71941;SDS011;59997;53.300;-6.260;2023-08-24T04:08:02;8.88;;;1.30;;
71941;SDS011;59997;53.300;-6.260;2023-08-24T04:10:30;7.65;;;1.58;;
71941;SDS011;59997;53.300;-6.260;2023-08-24T04:12:57;8.27;;;2.03;;
71941;SDS011;59997;53.300;-6.260;2023-08-24T04:15:23;8.70;;;1.63;;
71941;SDS011;59997;53.300;-6.260;2023-08-24T04:17:49;8.18;;;1.38;;
71941;SDS011;59997;53.300;-6.260;2023-08-24T04:20:15;9.38;;;1.52;;
71941;SDS011;59997;53.300;-6.260;2023-08-24T04:22:41;7.70;;;1.80;;
71941;SDS011;59997;53.300;-6.260;2023-08-24T04:25:08;6.68;;;1.20;;
71941;SDS011;59997;53.300;-6.260;2023-08-24T04:27:34;5.47;;;1.30;;
71941;SDS011;59997;53.300;-6.260;2023-08-24T04:30:00;8.70;;;1.40;;
71941;SDS011;59997;53.300;-6.260;2023-08-24T04:32:26;7.80;;;1.70;;
71941;SDS011;59997;53.300;-6.260;2023-08-24T04:34:53;9.57;;;1.77;;
71941;SDS011;59997;53.300;-6.260;2023-08-24T04:37:19;8.52;;;1.70;;
71941;SDS011;59997;53.300;-6.260;2023-08-24T04:39:45;9.70;;;1.80;;
71941;SDS011;59997;53.300;-6.260;2023-08-24T04:42:11;8.73;;;1.48;;
71941;SDS011;59997;53.300;-6.260;2023-08-24T04:44:37;6.88;;;1.55;;
71941;SDS011;59997;53.300;-6.260;2023-08-24T04:47:02;13.00;;;1.73;;
71941;SDS011;59997;53.300;-6.260;2023-08-24T04:49:32;9.73;;;1.70;;
71941;SDS011;59997;53.300;-6.260;2023-08-24T04:51:58;6.53;;;1.58;;
71941;SDS011;59997;53.300;-6.260;2023-08-24T04:54:23;9.47;;;1.40;;
71941;SDS011;59997;53.300;-6.260;2023-08-24T04:56:49;9.80;;;1.60;;
71941;SDS011;59997;53.300;-6.260;2023-08-24T04:59:15;6.17;;;1.43;;
71941;SDS011;59997;53.300;-6.260;2023-08-24T05:01:40;10.45;;;1.73;;
71941;SDS011;59997;53.300;-6.260;2023-08-24T05:04:06;8.93;;;1.90;;
71941;SDS011;59997;53.300;-6.260;2023-08-24T05:06:32;8.13;;;1.70;;
71941;SDS011;59997;53.300;-6.260;2023-08-24T05:08:59;6.60;;;1.88;;
71941;SDS011;59997;53.300;-6.260;2023-08-24T05:11:27;8.50;;;2.10;;
71941;SDS011;59997;53.300;-6.260;2023-08-24T05:13:56;8.55;;;1.90;;
71941;SDS011;59997;53.300;-6.260;2023-08-24T05:16:22;11.77;;;1.80;;
71941;SDS011;59997;53.300;-6.260;2023-08-24T05:18:48;10.68;;;1.90;;
71941;SDS011;59997;53.300;-6.260;2023-08-24T05:21:14;8.27;;;1.93;;
71941;SDS011;59997;53.300;-6.260;2023-08-24T05:23:41;11.55;;;2.22;;
71941;SDS011;59997;53.300;-6.260;2023-08-24T05:26:07;7.85;;;1.75;;
71941;SDS011;59997;53.300;-6.260;2023-08-24T05:28:33;8.65;;;1.65;;
71941;SDS011;59997;53.300;-6.260;2023-08-24T05:31:02;12.00;;;1.73;;
71941;SDS011;59997;53.300;-6.260;2023-08-24T05:33:27;12.00;;;1.73;;
71941;SDS011;59997;53.300;-6.260;2023-08-24T05:35:56;9.88;;;2.15;;
71941;SDS011;59997;53.300;-6.260;2023-08-24T05:38:24;9.10;;;2.42;;
71941;SDS011;59997;53.300;-6.260;2023-08-24T05:40:49;11.18;;;2.35;;
71941;SDS011;59997;53.300;-6.260;2023-08-24T05:43:15;9.40;;;2.30;;
71941;SDS011;59997;53.300;-6.260;2023-08-24T05:45:40;11.80;;;2.78;;
71941;SDS011;59997;53.300;-6.260;2023-08-24T05:48:09;9.83;;;2.43;;
71941;SDS011;59997;53.300;-6.260;2023-08-24T05:50:34;11.60;;;2.45;;
71941;SDS011;59997;53.300;-6.260;2023-08-24T05:53:02;12.05;;;2.67;;
71941;SDS011;59997;53.300;-6.260;2023-08-24T05:55:29;12.75;;;2.50;;
71941;SDS011;59997;53.300;-6.260;2023-08-24T05:57:55;9.27;;;2.83;;
71941;SDS011;59997;53.300;-6.260;2023-08-24T06:00:20;9.52;;;2.30;;
71941;SDS011;59997;53.300;-6.260;2023-08-24T06:02:47;12.60;;;2.33;;
71941;SDS011;59997;53.300;-6.260;2023-08-24T06:05:13;12.00;;;2.10;;
71941;SDS011;59997;53.300;-6.260;2023-08-24T06:07:40;10.97;;;2.00;;
71941;SDS011;59997;53.300;-6.260;2023-08-24T06:10:06;14.70;;;3.13;;
71941;SDS011;59997;53.300;-6.260;2023-08-24T06:12:33;10.73;;;2.45;;
71941;SDS011;59997;53.300;-6.260;2023-08-24T06:15:00;8.93;;;2.20;;
71941;SDS011;59997;53.300;-6.260;2023-08-24T06:17:30;9.90;;;2.90;;
71941;SDS011;59997;53.300;-6.260;2023-08-24T06:19:56;12.97;;;2.80;;
71941;SDS011;59997;53.300;-6.260;2023-08-24T06:22:21;13.02;;;3.13;;
71941;SDS011;59997;53.300;-6.260;2023-08-24T06:24:48;14.90;;;3.13;;
71941;SDS011;59997;53.300;-6.260;2023-08-24T06:27:14;10.68;;;3.28;;
71941;SDS011;59997;53.300;-6.260;2023-08-24T06:29:44;15.37;;;4.03;;
71941;SDS011;59997;53.300;-6.260;2023-08-24T06:32:10;15.57;;;3.67;;
71941;SDS011;59997;53.300;-6.260;2023-08-24T06:34:35;12.15;;;3.47;;
71941;SDS011;59997;53.300;-6.260;2023-08-24T06:37:01;13.03;;;3.90;;
71941;SDS011;59997;53.300;-6.260;2023-08-24T06:39:26;14.65;;;3.97;;
71941;SDS011;59997;53.300;-6.260;2023-08-24T06:41:53;16.33;;;4.17;;
71941;SDS011;59997;53.300;-6.260;2023-08-24T06:44:19;12.45;;;3.47;;
71941;SDS011;59997;53.300;-6.260;2023-08-24T06:46:44;14.85;;;3.45;;
71941;SDS011;59997;53.300;-6.260;2023-08-24T06:49:10;11.23;;;3.57;;
71941;SDS011;59997;53.300;-6.260;2023-08-24T06:51:36;13.53;;;3.57;;
71941;SDS011;59997;53.300;-6.260;2023-08-24T06:54:02;15.00;;;3.47;;
71941;SDS011;59997;53.300;-6.260;2023-08-24T06:56:27;15.02;;;3.58;;
71941;SDS011;59997;53.300;-6.260;2023-08-24T06:58:53;13.10;;;3.90;;
71941;SDS011;59997;53.300;-6.260;2023-08-24T07:01:18;15.50;;;3.57;;
71941;SDS011;59997;53.300;-6.260;2023-08-24T07:03:44;11.82;;;3.08;;
71941;SDS011;59997;53.300;-6.260;2023-08-24T07:06:10;12.87;;;2.47;;
71941;SDS011;59997;53.300;-6.260;2023-08-24T07:08:39;10.48;;;2.63;;
71941;SDS011;59997;53.300;-6.260;2023-08-24T07:11:05;8.13;;;1.98;;
71941;SDS011;59997;53.300;-6.260;2023-08-24T07:13:31;8.73;;;2.20;;
71941;SDS011;59997;53.300;-6.260;2023-08-24T07:15:58;8.85;;;1.98;;
71941;SDS011;59997;53.300;-6.260;2023-08-24T07:18:24;9.55;;;1.88;;
71941;SDS011;59997;53.300;-6.260;2023-08-24T07:20:49;9.05;;;1.75;;
71941;SDS011;59997;53.300;-6.260;2023-08-24T07:23:16;11.13;;;2.20;;
71941;SDS011;59997;53.300;-6.260;2023-08-24T07:25:42;8.82;;;1.23;;
71941;SDS011;59997;53.300;-6.260;2023-08-24T07:28:09;9.57;;;2.20;;
71941;SDS011;59997;53.300;-6.260;2023-08-24T07:30:36;11.82;;;2.70;;
71941;SDS011;59997;53.300;-6.260;2023-08-24T07:33:01;7.30;;;1.80;;
71941;SDS011;59997;53.300;-6.260;2023-08-24T07:35:52;8.63;;;2.10;;
71941;SDS011;59997;53.300;-6.260;2023-08-24T07:38:17;9.27;;;2.17;;
71941;SDS011;59997;53.300;-6.260;2023-08-24T07:40:43;10.33;;;2.40;;
71941;SDS011;59997;53.300;-6.260;2023-08-24T07:43:08;11.87;;;2.37;;
71941;SDS011;59997;53.300;-6.260;2023-08-24T07:45:35;9.32;;;2.72;;
71941;SDS011;59997;53.300;-6.260;2023-08-24T07:48:01;10.35;;;2.50;;
71941;SDS011;59997;53.300;-6.260;2023-08-24T07:50:27;9.80;;;2.50;;
71941;SDS011;59997;53.300;-6.260;2023-08-24T07:52:52;6.97;;;1.97;;
71941;SDS011;59997;53.300;-6.260;2023-08-24T07:55:19;8.52;;;1.80;;
71941;SDS011;59997;53.300;-6.260;2023-08-24T07:57:45;11.80;;;2.15;;
71941;SDS011;59997;53.300;-6.260;2023-08-24T08:00:14;9.83;;;1.70;;
71941;SDS011;59997;53.300;-6.260;2023-08-24T08:02:40;7.15;;;1.55;;
71941;SDS011;59997;53.300;-6.260;2023-08-24T08:05:06;9.02;;;1.30;;
71941;SDS011;59997;53.300;-6.260;2023-08-24T08:07:37;6.05;;;1.83;;
71941;SDS011;59997;53.300;-6.260;2023-08-24T08:10:04;6.93;;;1.47;;
71941;SDS011;59997;53.300;-6.260;2023-08-24T08:12:29;7.93;;;1.40;;
71941;SDS011;59997;53.300;-6.260;2023-08-24T08:14:59;6.93;;;1.30;;
71941;SDS011;59997;53.300;-6.260;2023-08-24T08:17:24;6.68;;;1.70;;
71941;SDS011;59997;53.300;-6.260;2023-08-24T08:19:54;7.83;;;1.37;;
71941;SDS011;59997;53.300;-6.260;2023-08-24T08:22:21;6.50;;;1.35;;
71941;SDS011;59997;53.300;-6.260;2023-08-24T08:24:47;6.95;;;2.22;;
71941;SDS011;59997;53.300;-6.260;2023-08-24T08:27:13;6.33;;;1.30;;
71941;SDS011;59997;53.300;-6.260;2023-08-24T08:29:39;7.90;;;1.50;;
71941;SDS011;59997;53.300;-6.260;2023-08-24T08:32:05;7.23;;;1.50;;
71941;SDS011;59997;53.300;-6.260;2023-08-24T08:34:32;7.75;;;1.30;;
71941;SDS011;59997;53.300;-6.260;2023-08-24T08:36:58;7.35;;;0.70;;
71941;SDS011;59997;53.300;-6.260;2023-08-24T08:39:24;6.68;;;0.95;;
71941;SDS011;59997;53.300;-6.260;2023-08-24T08:41:50;7.72;;;1.48;;
71941;SDS011;59997;53.300;-6.260;2023-08-24T08:44:16;4.13;;;0.70;;
71941;SDS011;59997;53.300;-6.260;2023-08-24T08:46:43;7.22;;;0.80;;
71941;SDS011;59997;53.300;-6.260;2023-08-24T08:49:11;7.57;;;1.60;;
71941;SDS011;59997;53.300;-6.260;2023-08-24T08:51:40;7.05;;;1.48;;
71941;SDS011;59997;53.300;-6.260;2023-08-24T08:54:08;6.33;;;1.00;;
71941;SDS011;59997;53.300;-6.260;2023-08-24T08:56:35;11.30;;;1.40;;
71941;SDS011;59997;53.300;-6.260;2023-08-24T08:59:01;9.93;;;1.00;;
71941;SDS011;59997;53.300;-6.260;2023-08-24T09:01:29;7.50;;;1.40;;
71941;SDS011;59997;53.300;-6.260;2023-08-24T09:03:55;6.73;;;1.40;;
71941;SDS011;59997;53.300;-6.260;2023-08-24T09:06:22;5.60;;;1.30;;
71941;SDS011;59997;53.300;-6.260;2023-08-24T09:08:48;6.03;;;1.38;;
71941;SDS011;59997;53.300;-6.260;2023-08-24T09:11:16;5.93;;;1.92;;
71941;SDS011;59997;53.300;-6.260;2023-08-24T09:13:47;7.30;;;1.23;;
71941;SDS011;59997;53.300;-6.260;2023-08-24T09:16:12;7.45;;;1.70;;
71941;SDS011;59997;53.300;-6.260;2023-08-24T09:18:42;6.22;;;1.48;;
71941;SDS011;59997;53.300;-6.260;2023-08-24T09:21:13;4.80;;;0.98;;
71941;SDS011;59997;53.300;-6.260;2023-08-24T09:23:53;6.60;;;1.58;;
71941;SDS011;59997;53.300;-6.260;2023-08-24T09:26:32;5.87;;;1.53;;
71941;SDS011;59997;53.300;-6.260;2023-08-24T09:29:15;7.15;;;1.08;;
71941;SDS011;59997;53.300;-6.260;2023-08-24T09:31:42;7.20;;;1.30;;
71941;SDS011;59997;53.300;-6.260;2023-08-24T09:34:11;6.22;;;1.23;;
71941;SDS011;59997;53.300;-6.260;2023-08-24T09:36:37;5.68;;;1.60;;
71941;SDS011;59997;53.300;-6.260;2023-08-24T09:39:04;6.93;;;1.60;;
71941;SDS011;59997;53.300;-6.260;2023-08-24T09:41:37;5.50;;;1.30;;
71941;SDS011;59997;53.300;-6.260;2023-08-24T09:44:06;7.47;;;1.33;;
71941;SDS011;59997;53.300;-6.260;2023-08-24T09:46:33;6.82;;;1.67;;
71941;SDS011;59997;53.300;-6.260;2023-08-24T09:48:59;6.13;;;1.30;;
71941;SDS011;59997;53.300;-6.260;2023-08-24T09:51:27;5.85;;;1.55;;
71941;SDS011;59997;53.300;-6.260;2023-08-24T09:53:56;6.85;;;1.63;;
71941;SDS011;59997;53.300;-6.260;2023-08-24T09:56:28;6.40;;;1.20;;
71941;SDS011;59997;53.300;-6.260;2023-08-24T09:58:54;6.20;;;1.45;;
71941;SDS011;59997;53.300;-6.260;2023-08-24T10:01:25;6.83;;;1.50;;
71941;SDS011;59997;53.300;-6.260;2023-08-24T10:03:51;6.22;;;1.48;;
71941;SDS011;59997;53.300;-6.260;2023-08-24T10:06:19;4.93;;;0.93;;
71941;SDS011;59997;53.300;-6.260;2023-08-24T10:08:52;7.53;;;1.00;;
71941;SDS011;59997;53.300;-6.260;2023-08-24T10:11:22;5.95;;;1.05;;
71941;SDS011;59997;53.300;-6.260;2023-08-24T10:14:15;6.10;;;1.27;;
71941;SDS011;59997;53.300;-6.260;2023-08-24T10:16:46;6.68;;;1.48;;
71941;SDS011;59997;53.300;-6.260;2023-08-24T10:19:15;4.28;;;0.80;;
71941;SDS011;59997;53.300;-6.260;2023-08-24T10:21:41;5.70;;;1.35;;
71941;SDS011;59997;53.300;-6.260;2023-08-24T10:24:08;7.53;;;1.30;;
71941;SDS011;59997;53.300;-6.260;2023-08-24T10:26:36;4.73;;;0.63;;
71941;SDS011;59997;53.300;-6.260;2023-08-24T10:29:06;5.65;;;1.10;;
71941;SDS011;59997;53.300;-6.260;2023-08-24T10:31:32;7.28;;;1.50;;
71941;SDS011;59997;53.300;-6.260;2023-08-24T10:34:00;6.60;;;1.10;;
71941;SDS011;59997;53.300;-6.260;2023-08-24T10:36:27;3.90;;;1.05;;
71941;SDS011;59997;53.300;-6.260;2023-08-24T10:38:55;5.33;;;1.30;;
71941;SDS011;59997;53.300;-6.260;2023-08-24T10:41:25;6.78;;;1.40;;
71941;SDS011;59997;53.300;-6.260;2023-08-24T10:43:52;5.65;;;1.67;;
71941;SDS011;59997;53.300;-6.260;2023-08-24T10:46:29;6.57;;;1.50;;
71941;SDS011;59997;53.300;-6.260;2023-08-24T10:49:03;5.68;;;0.95;;
71941;SDS011;59997;53.300;-6.260;2023-08-24T10:51:29;5.23;;;0.80;;
71941;SDS011;59997;53.300;-6.260;2023-08-24T10:53:57;9.95;;;1.50;;
71941;SDS011;59997;53.300;-6.260;2023-08-24T10:56:36;6.03;;;1.33;;
71941;SDS011;59997;53.300;-6.260;2023-08-24T10:59:14;6.68;;;1.40;;
71941;SDS011;59997;53.300;-6.260;2023-08-24T11:01:42;5.47;;;1.02;;
71941;SDS011;59997;53.300;-6.260;2023-08-24T11:04:21;5.07;;;1.17;;
71941;SDS011;59997;53.300;-6.260;2023-08-24T11:06:59;5.10;;;1.15;;
71941;SDS011;59997;53.300;-6.260;2023-08-24T11:09:45;5.13;;;0.70;;
71941;SDS011;59997;53.300;-6.260;2023-08-24T11:12:14;5.78;;;1.17;;
71941;SDS011;59997;53.300;-6.260;2023-08-24T11:14:52;4.75;;;0.60;;
71941;SDS011;59997;53.300;-6.260;2023-08-24T11:17:24;6.47;;;0.73;;
71941;SDS011;59997;53.300;-6.260;2023-08-24T11:19:57;4.80;;;0.85;;
71941;SDS011;59997;53.300;-6.260;2023-08-24T11:22:23;4.35;;;0.57;;
71941;SDS011;59997;53.300;-6.260;2023-08-24T11:24:50;5.70;;;0.93;;
71941;SDS011;59997;53.300;-6.260;2023-08-24T11:27:16;5.72;;;1.10;;
71941;SDS011;59997;53.300;-6.260;2023-08-24T11:29:42;5.47;;;1.23;;
71941;SDS011;59997;53.300;-6.260;2023-08-24T11:32:08;6.97;;;0.98;;
71941;SDS011;59997;53.300;-6.260;2023-08-24T11:34:35;3.83;;;0.60;;
71941;SDS011;59997;53.300;-6.260;2023-08-24T11:37:03;5.20;;;0.98;;
71941;SDS011;59997;53.300;-6.260;2023-08-24T11:39:29;5.70;;;1.30;;
71941;SDS011;59997;53.300;-6.260;2023-08-24T11:42:04;5.25;;;0.93;;
71941;SDS011;59997;53.300;-6.260;2023-08-24T11:44:51;7.20;;;1.90;;
71941;SDS011;59997;53.300;-6.260;2023-08-24T11:47:19;3.55;;;0.65;;
71941;SDS011;59997;53.300;-6.260;2023-08-24T11:49:45;4.85;;;0.80;;
71941;SDS011;59997;53.300;-6.260;2023-08-24T11:52:12;4.17;;;0.70;;
71941;SDS011;59997;53.300;-6.260;2023-08-24T11:54:41;4.63;;;0.70;;
71941;SDS011;59997;53.300;-6.260;2023-08-24T11:57:07;4.28;;;0.70;;
71941;SDS011;59997;53.300;-6.260;2023-08-24T11:59:34;4.60;;;0.85;;
71941;SDS011;59997;53.300;-6.260;2023-08-24T12:02:01;5.17;;;0.90;;
71941;SDS011;59997;53.300;-6.260;2023-08-24T12:04:37;4.38;;;0.85;;
71941;SDS011;59997;53.300;-6.260;2023-08-24T12:07:11;5.82;;;1.10;;
71941;SDS011;59997;53.300;-6.260;2023-08-24T12:09:39;3.20;;;0.50;;
71941;SDS011;59997;53.300;-6.260;2023-08-24T12:12:05;4.05;;;0.80;;
71941;SDS011;59997;53.300;-6.260;2023-08-24T12:14:40;3.63;;;0.80;;
71941;SDS011;59997;53.300;-6.260;2023-08-24T12:17:10;3.83;;;0.70;;
71941;SDS011;59997;53.300;-6.260;2023-08-24T12:19:36;5.40;;;1.00;;
71941;SDS011;59997;53.300;-6.260;2023-08-24T12:22:02;4.88;;;0.80;;
71941;SDS011;59997;53.300;-6.260;2023-08-24T12:24:28;4.33;;;0.80;;
71941;SDS011;59997;53.300;-6.260;2023-08-24T12:26:59;3.38;;;0.50;;
71941;SDS011;59997;53.300;-6.260;2023-08-24T12:29:27;3.80;;;0.60;;
71941;SDS011;59997;53.300;-6.260;2023-08-24T12:31:56;5.03;;;0.75;;
71941;SDS011;59997;53.300;-6.260;2023-08-24T12:34:24;5.07;;;1.00;;
71941;SDS011;59997;53.300;-6.260;2023-08-24T12:36:50;5.00;;;1.00;;
71941;SDS011;59997;53.300;-6.260;2023-08-24T12:39:16;4.28;;;1.00;;
71941;SDS011;59997;53.300;-6.260;2023-08-24T12:41:41;4.37;;;1.00;;
71941;SDS011;59997;53.300;-6.260;2023-08-24T12:44:07;3.67;;;0.60;;
71941;SDS011;59997;53.300;-6.260;2023-08-24T12:46:33;4.10;;;0.70;;
71941;SDS011;59997;53.300;-6.260;2023-08-24T12:49:01;5.60;;;0.60;;
71941;SDS011;59997;53.300;-6.260;2023-08-24T12:51:27;3.67;;;0.90;;
71941;SDS011;59997;53.300;-6.260;2023-08-24T12:53:53;4.00;;;0.80;;
71941;SDS011;59997;53.300;-6.260;2023-08-24T12:56:20;3.97;;;0.50;;
71941;SDS011;59997;53.300;-6.260;2023-08-24T12:58:46;4.00;;;0.60;;
71941;SDS011;59997;53.300;-6.260;2023-08-24T13:01:16;4.93;;;0.95;;
71941;SDS011;59997;53.300;-6.260;2023-08-24T13:03:42;3.75;;;0.88;;
71941;SDS011;59997;53.300;-6.260;2023-08-24T13:06:07;4.40;;;0.90;;
71941;SDS011;59997;53.300;-6.260;2023-08-24T13:08:34;4.38;;;0.88;;
71941;SDS011;59997;53.300;-6.260;2023-08-24T13:11:01;4.63;;;0.68;;
71941;SDS011;59997;53.300;-6.260;2023-08-24T13:13:27;4.53;;;0.70;;
71941;SDS011;59997;53.300;-6.260;2023-08-24T13:15:53;5.70;;;0.88;;
71941;SDS011;59997;53.300;-6.260;2023-08-24T13:18:19;3.67;;;0.77;;
71941;SDS011;59997;53.300;-6.260;2023-08-24T13:20:46;3.67;;;0.80;;
71941;SDS011;59997;53.300;-6.260;2023-08-24T13:23:13;4.70;;;0.70;;
71941;SDS011;59997;53.300;-6.260;2023-08-24T13:25:39;3.70;;;0.70;;
71941;SDS011;59997;53.300;-6.260;2023-08-24T13:28:06;4.32;;;1.00;;
71941;SDS011;59997;53.300;-6.260;2023-08-24T13:30:35;5.33;;;1.33;;
71941;SDS011;59997;53.300;-6.260;2023-08-24T13:33:00;4.47;;;0.65;;
71941;SDS011;59997;53.300;-6.260;2023-08-24T13:35:26;5.70;;;0.80;;
71941;SDS011;59997;53.300;-6.260;2023-08-24T13:37:53;6.03;;;1.27;;
71941;SDS011;59997;53.300;-6.260;2023-08-24T13:40:19;6.35;;;1.45;;
71941;SDS011;59997;53.300;-6.260;2023-08-24T13:42:45;7.40;;;1.58;;
71941;SDS011;59997;53.300;-6.260;2023-08-24T13:45:11;5.97;;;1.70;;
71941;SDS011;59997;53.300;-6.260;2023-08-24T13:47:37;5.53;;;1.03;;
71941;SDS011;59997;53.300;-6.260;2023-08-24T13:50:03;4.18;;;0.90;;
71941;SDS011;59997;53.300;-6.260;2023-08-24T13:52:29;5.38;;;0.80;;
71941;SDS011;59997;53.300;-6.260;2023-08-24T13:54:54;4.77;;;0.90;;
71941;SDS011;59997;53.300;-6.260;2023-08-24T13:57:20;3.72;;;0.82;;
71941;SDS011;59997;53.300;-6.260;2023-08-24T13:59:45;3.23;;;0.43;;
71941;SDS011;59997;53.300;-6.260;2023-08-24T14:02:11;3.80;;;0.40;;
71941;SDS011;59997;53.300;-6.260;2023-08-24T14:04:38;5.32;;;0.60;;
71941;SDS011;59997;53.300;-6.260;2023-08-24T14:07:03;4.20;;;0.63;;
71941;SDS011;59997;53.300;-6.260;2023-08-24T14:09:29;4.00;;;0.53;;
71941;SDS011;59997;53.300;-6.260;2023-08-24T14:11:54;4.70;;;0.53;;
71941;SDS011;59997;53.300;-6.260;2023-08-24T14:14:20;4.82;;;0.70;;
71941;SDS011;59997;53.300;-6.260;2023-08-24T14:16:45;3.67;;;0.70;;
71941;SDS011;59997;53.300;-6.260;2023-08-24T14:19:11;4.23;;;0.60;;
71941;SDS011;59997;53.300;-6.260;2023-08-24T14:21:37;4.28;;;0.60;;
71941;SDS011;59997;53.300;-6.260;2023-08-24T14:24:03;4.00;;;0.63;;
71941;SDS011;59997;53.300;-6.260;2023-08-24T14:26:29;4.03;;;0.70;;
71941;SDS011;59997;53.300;-6.260;2023-08-24T14:28:55;4.78;;;0.60;;
71941;SDS011;59997;53.300;-6.260;2023-08-24T14:31:24;5.43;;;0.60;;
71941;SDS011;59997;53.300;-6.260;2023-08-24T14:33:55;4.45;;;0.68;;
71941;SDS011;59997;53.300;-6.260;2023-08-24T14:36:21;3.78;;;0.73;;
71941;SDS011;59997;53.300;-6.260;2023-08-24T14:38:48;3.53;;;0.60;;
71941;SDS011;59997;53.300;-6.260;2023-08-24T14:41:15;5.18;;;0.85;;